sensor_id;sensor_type;location;lat;lon;timestamp;P1;durP1;ratioP1;P2;durP2;ratioP2
22378;SDS011;11357;49.990;7.370;2022-11-04T00:01:45;1547.53;;;899.40;;
22378;SDS011;11357;49.990;7.370;2022-11-04T00:04:12;1999.90;;;759.30;;
22378;SDS011;11357;49.990;7.370;2022-11-04T00:06:38;1699.33;;;958.60;;
22378;SDS011;11357;49.990;7.370;2022-11-04T00:09:05;1846.93;;;971.80;;
22378;SDS011;11357;49.990;7.370;2022-11-04T00:11:32;1770.43;;;994.60;;
22378;SDS011;11357;49.990;7.370;2022-11-04T00:14:17;1999.90;;;988.83;;
22378;SDS011;11357;49.990;7.370;2022-11-04T00:16:43;1999.90;;;958.17;;
22378;SDS011;11357;49.990;7.370;2022-11-04T00:19:27;1947.47;;;916.27;;
22378;SDS011;11357;49.990;7.370;2022-11-04T00:21:53;1999.90;;;999.90;;
22378;SDS011;11357;49.990;7.370;2022-11-04T00:24:38;1999.90;;;871.70;;
22378;SDS011;11357;49.990;7.370;2022-11-04T00:27:13;1999.90;;;865.97;;
22378;SDS011;11357;49.990;7.370;2022-11-04T00:29:59;1999.90;;;888.07;;
22378;SDS011;11357;49.990;7.370;2022-11-04T00:32:25;1934.60;;;987.73;;
22378;SDS011;11357;49.990;7.370;2022-11-04T00:35:10;1779.43;;;950.57;;
22378;SDS011;11357;49.990;7.370;2022-11-04T00:37:36;1945.97;;;955.13;;
22378;SDS011;11357;49.990;7.370;2022-11-04T00:40:07;1726.43;;;939.87;;
22378;SDS011;11357;49.990;7.370;2022-11-04T00:42:34;1999.90;;;996.23;;
22378;SDS011;11357;49.990;7.370;2022-11-04T00:45:00;1779.60;;;943.97;;
22378;SDS011;11357;49.990;7.370;2022-11-04T00:47:26;1999.90;;;962.53;;
22378;SDS011;11357;49.990;7.370;2022-11-04T00:49:51;1999.90;;;999.90;;
22378;SDS011;11357;49.990;7.370;2022-11-04T00:52:17;1999.90;;;806.47;;
22378;SDS011;11357;49.990;7.370;2022-11-04T00:54:43;1999.90;;;982.40;;
22378;SDS011;11357;49.990;7.370;2022-11-04T00:57:12;1999.90;;;978.93;;
22378;SDS011;11357;49.990;7.370;2022-11-04T00:59:38;1999.90;;;933.53;;
22378;SDS011;11357;49.990;7.370;2022-11-04T01:02:05;1999.90;;;765.87;;
22378;SDS011;11357;49.990;7.370;2022-11-04T01:04:31;1999.90;;;977.20;;
22378;SDS011;11357;49.990;7.370;2022-11-04T01:06:56;1999.90;;;893.90;;
22378;SDS011;11357;49.990;7.370;2022-11-04T01:09:22;1999.90;;;920.77;;
22378;SDS011;11357;49.990;7.370;2022-11-04T01:11:48;1999.90;;;736.20;;
22378;SDS011;11357;49.990;7.370;2022-11-04T01:14:14;1999.90;;;937.10;;
22378;SDS011;11357;49.990;7.370;2022-11-04T01:16:40;1999.90;;;761.03;;
22378;SDS011;11357;49.990;7.370;2022-11-04T01:19:06;1994.80;;;943.07;;
22378;SDS011;11357;49.990;7.370;2022-11-04T01:21:32;1999.90;;;693.97;;
22378;SDS011;11357;49.990;7.370;2022-11-04T01:23:58;1999.90;;;873.83;;
22378;SDS011;11357;49.990;7.370;2022-11-04T01:26:24;1999.90;;;956.97;;
22378;SDS011;11357;49.990;7.370;2022-11-04T01:28:52;1990.13;;;924.30;;
22378;SDS011;11357;49.990;7.370;2022-11-04T01:31:20;1801.27;;;751.17;;
22378;SDS011;11357;49.990;7.370;2022-11-04T01:33:48;1999.90;;;816.73;;
22378;SDS011;11357;49.990;7.370;2022-11-04T01:36:15;1999.90;;;845.83;;
22378;SDS011;11357;49.990;7.370;2022-11-04T01:38:41;1999.90;;;753.03;;
22378;SDS011;11357;49.990;7.370;2022-11-04T01:41:07;1999.90;;;729.33;;
22378;SDS011;11357;49.990;7.370;2022-11-04T01:43:48;1999.90;;;902.57;;
22378;SDS011;11357;49.990;7.370;2022-11-04T01:51:50;1999.90;;;664.00;;
22378;SDS011;11357;49.990;7.370;2022-11-04T01:54:18;1999.90;;;874.03;;
22378;SDS011;11357;49.990;7.370;2022-11-04T01:56:44;1999.90;;;896.20;;
22378;SDS011;11357;49.990;7.370;2022-11-04T01:59:18;1999.90;;;828.67;;
22378;SDS011;11357;49.990;7.370;2022-11-04T02:01:49;1904.87;;;821.83;;
22378;SDS011;11357;49.990;7.370;2022-11-04T02:04:14;1999.90;;;879.67;;
22378;SDS011;11357;49.990;7.370;2022-11-04T02:06:51;1999.90;;;869.23;;
22378;SDS011;11357;49.990;7.370;2022-11-04T02:09:22;1999.90;;;825.87;;
22378;SDS011;11357;49.990;7.370;2022-11-04T02:11:49;1999.90;;;939.67;;
22378;SDS011;11357;49.990;7.370;2022-11-04T02:14:33;1999.90;;;850.10;;
22378;SDS011;11357;49.990;7.370;2022-11-04T02:22:56;1999.90;;;854.60;;
22378;SDS011;11357;49.990;7.370;2022-11-04T02:29:04;1999.90;;;815.43;;
22378;SDS011;11357;49.990;7.370;2022-11-04T02:40:04;1999.90;;;772.40;;
22378;SDS011;11357;49.990;7.370;2022-11-04T02:42:52;1999.90;;;754.27;;
22378;SDS011;11357;49.990;7.370;2022-11-04T02:50:48;1999.90;;;806.33;;
22378;SDS011;11357;49.990;7.370;2022-11-04T02:53:36;1999.90;;;861.43;;
22378;SDS011;11357;49.990;7.370;2022-11-04T02:56:07;1999.90;;;875.57;;
22378;SDS011;11357;49.990;7.370;2022-11-04T02:58:36;1899.50;;;760.60;;
22378;SDS011;11357;49.990;7.370;2022-11-04T03:01:06;1999.90;;;694.27;;
22378;SDS011;11357;49.990;7.370;2022-11-04T03:03:38;1999.90;;;715.27;;
22378;SDS011;11357;49.990;7.370;2022-11-04T03:06:07;1999.90;;;792.90;;
22378;SDS011;11357;49.990;7.370;2022-11-04T03:08:37;1999.90;;;876.57;;
22378;SDS011;11357;49.990;7.370;2022-11-04T03:11:22;1999.90;;;765.43;;
22378;SDS011;11357;49.990;7.370;2022-11-04T03:16:33;1999.90;;;839.43;;
22378;SDS011;11357;49.990;7.370;2022-11-04T03:19:28;1999.90;;;839.50;;
22378;SDS011;11357;49.990;7.370;2022-11-04T03:22:09;1999.90;;;810.53;;
22378;SDS011;11357;49.990;7.370;2022-11-04T03:24:38;1999.90;;;798.60;;
22378;SDS011;11357;49.990;7.370;2022-11-04T03:30:11;1999.90;;;738.77;;
22378;SDS011;11357;49.990;7.370;2022-11-04T03:35:07;1999.90;;;740.80;;
22378;SDS011;11357;49.990;7.370;2022-11-04T03:37:35;1999.90;;;758.60;;
22378;SDS011;11357;49.990;7.370;2022-11-04T03:40:00;1999.90;;;704.20;;
22378;SDS011;11357;49.990;7.370;2022-11-04T03:42:27;1999.90;;;779.30;;
22378;SDS011;11357;49.990;7.370;2022-11-04T03:44:54;1999.90;;;760.70;;
22378;SDS011;11357;49.990;7.370;2022-11-04T03:47:22;1999.90;;;792.23;;
22378;SDS011;11357;49.990;7.370;2022-11-04T03:49:50;1999.90;;;807.47;;
22378;SDS011;11357;49.990;7.370;2022-11-04T03:52:23;1997.43;;;723.37;;
22378;SDS011;11357;49.990;7.370;2022-11-04T03:54:49;1999.90;;;798.43;;
22378;SDS011;11357;49.990;7.370;2022-11-04T04:00:16;1999.90;;;755.93;;
22378;SDS011;11357;49.990;7.370;2022-11-04T04:13:34;1999.90;;;742.57;;
22378;SDS011;11357;49.990;7.370;2022-11-04T04:16:08;1999.90;;;821.27;;
22378;SDS011;11357;49.990;7.370;2022-11-04T04:21:12;1999.90;;;820.00;;
22378;SDS011;11357;49.990;7.370;2022-11-04T04:23:42;1999.90;;;721.07;;
22378;SDS011;11357;49.990;7.370;2022-11-04T04:26:28;1999.90;;;778.53;;
22378;SDS011;11357;49.990;7.370;2022-11-04T04:29:14;1999.90;;;728.00;;
22378;SDS011;11357;49.990;7.370;2022-11-04T04:31:42;1999.90;;;855.83;;
22378;SDS011;11357;49.990;7.370;2022-11-04T04:34:15;1999.90;;;805.70;;
22378;SDS011;11357;49.990;7.370;2022-11-04T04:36:44;1999.90;;;790.90;;
22378;SDS011;11357;49.990;7.370;2022-11-04T04:39:21;1999.90;;;790.63;;
22378;SDS011;11357;49.990;7.370;2022-11-04T04:42:08;1569.20;;;497.70;;
22378;SDS011;11357;49.990;7.370;2022-11-04T04:44:53;1999.90;;;830.40;;
22378;SDS011;11357;49.990;7.370;2022-11-04T04:47:44;1999.90;;;819.77;;
22378;SDS011;11357;49.990;7.370;2022-11-04T04:50:14;1999.90;;;738.87;;
22378;SDS011;11357;49.990;7.370;2022-11-04T04:52:43;1974.77;;;736.47;;
22378;SDS011;11357;49.990;7.370;2022-11-04T04:55:12;1999.90;;;814.83;;
22378;SDS011;11357;49.990;7.370;2022-11-04T04:57:38;1999.90;;;829.27;;
22378;SDS011;11357;49.990;7.370;2022-11-04T05:00:05;1999.90;;;852.93;;
22378;SDS011;11357;49.990;7.370;2022-11-04T05:02:32;1999.90;;;793.43;;
22378;SDS011;11357;49.990;7.370;2022-11-04T05:04:58;1999.90;;;698.07;;
22378;SDS011;11357;49.990;7.370;2022-11-04T05:07:24;1999.90;;;718.23;;
22378;SDS011;11357;49.990;7.370;2022-11-04T05:09:50;1999.90;;;687.97;;
22378;SDS011;11357;49.990;7.370;2022-11-04T05:12:16;1999.90;;;703.33;;
22378;SDS011;11357;49.990;7.370;2022-11-04T05:14:42;1999.90;;;742.73;;
22378;SDS011;11357;49.990;7.370;2022-11-04T05:17:07;1999.90;;;715.30;;
22378;SDS011;11357;49.990;7.370;2022-11-04T05:19:33;1999.90;;;764.57;;
22378;SDS011;11357;49.990;7.370;2022-11-04T05:21:59;1999.90;;;697.97;;
22378;SDS011;11357;49.990;7.370;2022-11-04T05:24:25;1999.90;;;746.00;;
22378;SDS011;11357;49.990;7.370;2022-11-04T05:26:51;1999.90;;;716.63;;
22378;SDS011;11357;49.990;7.370;2022-11-04T05:29:16;1999.90;;;751.93;;
22378;SDS011;11357;49.990;7.370;2022-11-04T05:31:42;1999.90;;;672.10;;
22378;SDS011;11357;49.990;7.370;2022-11-04T05:34:11;1999.90;;;806.63;;
22378;SDS011;11357;49.990;7.370;2022-11-04T05:36:37;1999.90;;;746.03;;
22378;SDS011;11357;49.990;7.370;2022-11-04T05:39:03;1999.90;;;749.47;;
22378;SDS011;11357;49.990;7.370;2022-11-04T05:41:30;1999.90;;;794.10;;
22378;SDS011;11357;49.990;7.370;2022-11-04T05:43:57;1999.90;;;756.53;;
22378;SDS011;11357;49.990;7.370;2022-11-04T05:46:27;1999.90;;;785.93;;
22378;SDS011;11357;49.990;7.370;2022-11-04T05:48:54;1999.90;;;854.43;;
22378;SDS011;11357;49.990;7.370;2022-11-04T05:51:20;1999.90;;;841.47;;
22378;SDS011;11357;49.990;7.370;2022-11-04T05:53:48;1999.90;;;886.63;;
22378;SDS011;11357;49.990;7.370;2022-11-04T05:56:14;1999.90;;;908.03;;
22378;SDS011;11357;49.990;7.370;2022-11-04T05:58:40;1999.90;;;921.70;;
22378;SDS011;11357;49.990;7.370;2022-11-04T06:03:50;1999.90;;;869.73;;
22378;SDS011;11357;49.990;7.370;2022-11-04T06:06:17;1999.90;;;893.57;;
22378;SDS011;11357;49.990;7.370;2022-11-04T06:08:43;1999.90;;;904.33;;
22378;SDS011;11357;49.990;7.370;2022-11-04T06:11:08;1999.90;;;914.90;;
22378;SDS011;11357;49.990;7.370;2022-11-04T06:13:34;1999.90;;;919.33;;
22378;SDS011;11357;49.990;7.370;2022-11-04T06:15:59;1999.90;;;905.73;;
22378;SDS011;11357;49.990;7.370;2022-11-04T06:18:25;1999.90;;;852.90;;
22378;SDS011;11357;49.990;7.370;2022-11-04T06:21:05;1999.90;;;860.73;;
22378;SDS011;11357;49.990;7.370;2022-11-04T06:23:37;1999.90;;;891.00;;
22378;SDS011;11357;49.990;7.370;2022-11-04T06:26:03;1999.90;;;923.83;;
22378;SDS011;11357;49.990;7.370;2022-11-04T06:28:29;1999.90;;;925.83;;
22378;SDS011;11357;49.990;7.370;2022-11-04T06:30:58;1999.90;;;954.93;;
22378;SDS011;11357;49.990;7.370;2022-11-04T06:33:25;1999.90;;;941.50;;
22378;SDS011;11357;49.990;7.370;2022-11-04T06:35:51;1999.90;;;948.23;;
22378;SDS011;11357;49.990;7.370;2022-11-04T06:38:21;1999.90;;;928.23;;
22378;SDS011;11357;49.990;7.370;2022-11-04T06:40:47;1999.90;;;952.53;;
22378;SDS011;11357;49.990;7.370;2022-11-04T06:43:12;1999.90;;;947.70;;
22378;SDS011;11357;49.990;7.370;2022-11-04T06:45:38;1999.90;;;958.50;;
22378;SDS011;11357;49.990;7.370;2022-11-04T06:48:04;1999.90;;;940.03;;
22378;SDS011;11357;49.990;7.370;2022-11-04T06:50:30;1999.90;;;946.17;;
22378;SDS011;11357;49.990;7.370;2022-11-04T06:52:55;1999.90;;;920.03;;
22378;SDS011;11357;49.990;7.370;2022-11-04T06:55:21;1999.90;;;969.07;;
22378;SDS011;11357;49.990;7.370;2022-11-04T06:57:47;1999.90;;;948.47;;
22378;SDS011;11357;49.990;7.370;2022-11-04T07:00:12;1999.90;;;874.27;;
22378;SDS011;11357;49.990;7.370;2022-11-04T07:02:38;1999.90;;;920.40;;
22378;SDS011;11357;49.990;7.370;2022-11-04T07:05:04;1999.90;;;940.90;;
22378;SDS011;11357;49.990;7.370;2022-11-04T07:07:30;1999.90;;;940.07;;
22378;SDS011;11357;49.990;7.370;2022-11-04T07:09:56;1999.90;;;969.83;;
22378;SDS011;11357;49.990;7.370;2022-11-04T07:12:22;1999.90;;;982.47;;
22378;SDS011;11357;49.990;7.370;2022-11-04T07:14:48;1999.90;;;963.63;;
22378;SDS011;11357;49.990;7.370;2022-11-04T07:17:15;1999.90;;;951.90;;
22378;SDS011;11357;49.990;7.370;2022-11-04T07:19:41;1999.90;;;980.87;;
22378;SDS011;11357;49.990;7.370;2022-11-04T07:22:07;1999.90;;;999.00;;
22378;SDS011;11357;49.990;7.370;2022-11-04T07:24:33;1999.90;;;945.03;;
22378;SDS011;11357;49.990;7.370;2022-11-04T07:26:58;1999.90;;;960.83;;
22378;SDS011;11357;49.990;7.370;2022-11-04T07:29:24;1999.90;;;968.47;;
22378;SDS011;11357;49.990;7.370;2022-11-04T07:31:50;1999.90;;;961.53;;
22378;SDS011;11357;49.990;7.370;2022-11-04T07:34:15;1999.90;;;969.13;;
22378;SDS011;11357;49.990;7.370;2022-11-04T07:36:41;1999.90;;;941.10;;
22378;SDS011;11357;49.990;7.370;2022-11-04T07:39:07;1993.73;;;937.33;;
22378;SDS011;11357;49.990;7.370;2022-11-04T07:41:32;1999.90;;;938.23;;
22378;SDS011;11357;49.990;7.370;2022-11-04T07:43:58;1954.07;;;966.97;;
22378;SDS011;11357;49.990;7.370;2022-11-04T07:46:26;1888.23;;;964.03;;
22378;SDS011;11357;49.990;7.370;2022-11-04T07:48:51;1929.70;;;925.00;;
22378;SDS011;11357;49.990;7.370;2022-11-04T07:51:20;1999.90;;;949.10;;
22378;SDS011;11357;49.990;7.370;2022-11-04T07:53:46;1999.90;;;915.30;;
22378;SDS011;11357;49.990;7.370;2022-11-04T07:56:12;1999.90;;;967.83;;
22378;SDS011;11357;49.990;7.370;2022-11-04T07:58:38;1999.90;;;915.57;;
22378;SDS011;11357;49.990;7.370;2022-11-04T08:01:05;1999.90;;;982.93;;
22378;SDS011;11357;49.990;7.370;2022-11-04T08:03:33;1999.90;;;986.47;;
22378;SDS011;11357;49.990;7.370;2022-11-04T08:06:00;1999.90;;;919.67;;
22378;SDS011;11357;49.990;7.370;2022-11-04T08:08:27;1999.90;;;969.03;;
22378;SDS011;11357;49.990;7.370;2022-11-04T08:10:54;1999.90;;;966.23;;
22378;SDS011;11357;49.990;7.370;2022-11-04T08:13:27;1999.90;;;888.03;;
22378;SDS011;11357;49.990;7.370;2022-11-04T08:15:54;1999.90;;;971.07;;
22378;SDS011;11357;49.990;7.370;2022-11-04T08:18:20;1999.90;;;965.90;;
22378;SDS011;11357;49.990;7.370;2022-11-04T08:20:47;1939.57;;;968.43;;
22378;SDS011;11357;49.990;7.370;2022-11-04T08:23:14;1999.90;;;890.20;;
22378;SDS011;11357;49.990;7.370;2022-11-04T08:25:40;1999.90;;;984.53;;
22378;SDS011;11357;49.990;7.370;2022-11-04T08:28:06;1953.30;;;978.40;;
22378;SDS011;11357;49.990;7.370;2022-11-04T08:30:31;1999.90;;;989.07;;
22378;SDS011;11357;49.990;7.370;2022-11-04T08:32:57;1999.90;;;956.67;;
22378;SDS011;11357;49.990;7.370;2022-11-04T08:35:23;1999.90;;;981.57;;
22378;SDS011;11357;49.990;7.370;2022-11-04T08:37:50;1999.90;;;985.27;;
22378;SDS011;11357;49.990;7.370;2022-11-04T08:40:15;1999.90;;;979.43;;
22378;SDS011;11357;49.990;7.370;2022-11-04T08:42:41;1999.90;;;946.83;;
22378;SDS011;11357;49.990;7.370;2022-11-04T08:45:07;1999.90;;;963.33;;
22378;SDS011;11357;49.990;7.370;2022-11-04T08:47:32;1999.90;;;983.20;;
22378;SDS011;11357;49.990;7.370;2022-11-04T08:49:58;1999.90;;;982.87;;
22378;SDS011;11357;49.990;7.370;2022-11-04T08:52:24;1999.90;;;970.07;;
22378;SDS011;11357;49.990;7.370;2022-11-04T08:54:52;1999.90;;;931.77;;
22378;SDS011;11357;49.990;7.370;2022-11-04T08:57:18;1999.90;;;904.03;;
22378;SDS011;11357;49.990;7.370;2022-11-04T08:59:44;1999.90;;;965.97;;
22378;SDS011;11357;49.990;7.370;2022-11-04T09:02:12;1999.90;;;929.57;;
22378;SDS011;11357;49.990;7.370;2022-11-04T09:04:39;1999.90;;;981.07;;
22378;SDS011;11357;49.990;7.370;2022-11-04T09:07:05;1999.90;;;951.90;;
22378;SDS011;11357;49.990;7.370;2022-11-04T09:09:31;1999.90;;;956.17;;
22378;SDS011;11357;49.990;7.370;2022-11-04T09:11:57;1999.90;;;889.70;;
22378;SDS011;11357;49.990;7.370;2022-11-04T09:14:23;1999.90;;;951.67;;
22378;SDS011;11357;49.990;7.370;2022-11-04T09:16:49;1999.90;;;908.83;;
22378;SDS011;11357;49.990;7.370;2022-11-04T09:19:15;1999.90;;;886.77;;
22378;SDS011;11357;49.990;7.370;2022-11-04T09:21:40;1999.90;;;950.40;;
22378;SDS011;11357;49.990;7.370;2022-11-04T09:24:06;1999.90;;;913.87;;
22378;SDS011;11357;49.990;7.370;2022-11-04T09:26:32;1999.90;;;919.60;;
22378;SDS011;11357;49.990;7.370;2022-11-04T09:28:59;1999.90;;;899.90;;
22378;SDS011;11357;49.990;7.370;2022-11-04T09:31:25;1999.90;;;925.23;;
22378;SDS011;11357;49.990;7.370;2022-11-04T09:33:53;1999.90;;;873.03;;
22378;SDS011;11357;49.990;7.370;2022-11-04T09:36:19;1999.90;;;949.90;;
22378;SDS011;11357;49.990;7.370;2022-11-04T09:38:45;1999.90;;;911.77;;
22378;SDS011;11357;49.990;7.370;2022-11-04T09:46:50;1999.90;;;937.57;;
22378;SDS011;11357;49.990;7.370;2022-11-04T09:49:18;1999.90;;;960.90;;
22378;SDS011;11357;49.990;7.370;2022-11-04T09:51:45;1999.90;;;868.67;;
22378;SDS011;11357;49.990;7.370;2022-11-04T09:54:17;1999.90;;;846.33;;
22378;SDS011;11357;49.990;7.370;2022-11-04T09:56:47;1999.90;;;895.00;;
22378;SDS011;11357;49.990;7.370;2022-11-04T09:59:18;1999.90;;;613.30;;
22378;SDS011;11357;49.990;7.370;2022-11-04T10:07:38;1999.90;;;643.80;;
22378;SDS011;11357;49.990;7.370;2022-11-04T10:10:20;1999.90;;;869.93;;
22378;SDS011;11357;49.990;7.370;2022-11-04T10:18:38;1999.90;;;923.27;;
22378;SDS011;11357;49.990;7.370;2022-11-04T10:23:31;1953.17;;;522.20;;
22378;SDS011;11357;49.990;7.370;2022-11-04T10:28:41;1999.90;;;891.10;;
22378;SDS011;11357;49.990;7.370;2022-11-04T10:31:13;1999.90;;;787.23;;
22378;SDS011;11357;49.990;7.370;2022-11-04T10:33:42;1999.90;;;864.70;;
22378;SDS011;11357;49.990;7.370;2022-11-04T10:36:12;1999.90;;;662.83;;
22378;SDS011;11357;49.990;7.370;2022-11-04T10:38:50;1999.90;;;736.83;;
22378;SDS011;11357;49.990;7.370;2022-11-04T10:51:39;1999.90;;;937.47;;
22378;SDS011;11357;49.990;7.370;2022-11-04T10:54:07;1979.10;;;952.30;;
22378;SDS011;11357;49.990;7.370;2022-11-04T10:56:35;1831.50;;;939.00;;
22378;SDS011;11357;49.990;7.370;2022-11-04T11:01:53;1987.80;;;960.30;;
22378;SDS011;11357;49.990;7.370;2022-11-04T11:04:27;1999.90;;;999.90;;
22378;SDS011;11357;49.990;7.370;2022-11-04T11:06:59;1999.90;;;960.00;;
22378;SDS011;11357;49.990;7.370;2022-11-04T11:09:36;1879.80;;;946.73;;
22378;SDS011;11357;49.990;7.370;2022-11-04T11:14:40;1981.93;;;929.13;;
22378;SDS011;11357;49.990;7.370;2022-11-04T11:19:53;1999.90;;;863.07;;
22378;SDS011;11357;49.990;7.370;2022-11-04T11:28:23;1999.90;;;748.63;;
22378;SDS011;11357;49.990;7.370;2022-11-04T11:30:56;1999.90;;;894.67;;
22378;SDS011;11357;49.990;7.370;2022-11-04T11:33:33;1999.90;;;957.37;;
22378;SDS011;11357;49.990;7.370;2022-11-04T11:38:37;1999.90;;;724.47;;
22378;SDS011;11357;49.990;7.370;2022-11-04T11:41:15;1999.90;;;921.53;;
22378;SDS011;11357;49.990;7.370;2022-11-04T11:43:50;1999.90;;;873.27;;
22378;SDS011;11357;49.990;7.370;2022-11-04T11:46:21;1999.90;;;990.60;;
22378;SDS011;11357;49.990;7.370;2022-11-04T11:48:49;1999.90;;;810.77;;
22378;SDS011;11357;49.990;7.370;2022-11-04T11:56:38;1999.90;;;911.67;;
22378;SDS011;11357;49.990;7.370;2022-11-04T11:59:18;1999.90;;;938.57;;
22378;SDS011;11357;49.990;7.370;2022-11-04T12:05:10;1999.90;;;942.03;;
22378;SDS011;11357;49.990;7.370;2022-11-04T12:07:47;1999.90;;;977.27;;
22378;SDS011;11357;49.990;7.370;2022-11-04T12:12:51;1999.90;;;949.07;;
22378;SDS011;11357;49.990;7.370;2022-11-04T12:18:07;1999.90;;;927.60;;
22378;SDS011;11357;49.990;7.370;2022-11-04T12:21:12;1959.13;;;960.73;;
22378;SDS011;11357;49.990;7.370;2022-11-04T12:26:35;1999.90;;;974.53;;
22378;SDS011;11357;49.990;7.370;2022-11-04T12:29:18;1769.93;;;932.13;;
22378;SDS011;11357;49.990;7.370;2022-11-04T12:37:09;1648.07;;;940.63;;
22378;SDS011;11357;49.990;7.370;2022-11-04T12:49:58;1495.37;;;891.80;;
22378;SDS011;11357;49.990;7.370;2022-11-04T12:57:47;1441.57;;;893.77;;
22378;SDS011;11357;49.990;7.370;2022-11-04T13:00:34;1531.47;;;935.87;;
22378;SDS011;11357;49.990;7.370;2022-11-04T13:03:04;1743.47;;;938.97;;
22378;SDS011;11357;49.990;7.370;2022-11-04T13:05:47;1786.83;;;971.70;;
22378;SDS011;11357;49.990;7.370;2022-11-04T13:08:20;1910.30;;;978.80;;
22378;SDS011;11357;49.990;7.370;2022-11-04T13:10:53;1594.20;;;914.80;;
22378;SDS011;11357;49.990;7.370;2022-11-04T13:13:26;1842.50;;;966.23;;
22378;SDS011;11357;49.990;7.370;2022-11-04T13:15:59;1725.50;;;924.73;;
22378;SDS011;11357;49.990;7.370;2022-11-04T13:18:30;1577.67;;;922.67;;
22378;SDS011;11357;49.990;7.370;2022-11-04T13:23:31;1892.10;;;974.20;;
22378;SDS011;11357;49.990;7.370;2022-11-04T13:26:08;1853.00;;;970.90;;
22378;SDS011;11357;49.990;7.370;2022-11-04T13:28:38;1890.27;;;948.60;;
22378;SDS011;11357;49.990;7.370;2022-11-04T13:31:18;1883.53;;;952.67;;
22378;SDS011;11357;49.990;7.370;2022-11-04T13:36:38;1791.70;;;952.50;;
22378;SDS011;11357;49.990;7.370;2022-11-04T13:46:53;1910.23;;;975.83;;
22378;SDS011;11357;49.990;7.370;2022-11-04T13:52:02;1713.30;;;942.37;;
22378;SDS011;11357;49.990;7.370;2022-11-04T13:54:40;1697.83;;;949.17;;
22378;SDS011;11357;49.990;7.370;2022-11-04T13:59:38;1730.50;;;911.57;;
22378;SDS011;11357;49.990;7.370;2022-11-04T14:04:44;1827.27;;;958.77;;
22378;SDS011;11357;49.990;7.370;2022-11-04T14:07:11;1872.40;;;935.50;;
22378;SDS011;11357;49.990;7.370;2022-11-04T14:14:42;1712.90;;;946.93;;
22378;SDS011;11357;49.990;7.370;2022-11-04T14:19:59;1810.37;;;952.80;;
22378;SDS011;11357;49.990;7.370;2022-11-04T14:22:35;1999.90;;;999.90;;
22378;SDS011;11357;49.990;7.370;2022-11-04T14:25:21;1983.07;;;979.47;;
22378;SDS011;11357;49.990;7.370;2022-11-04T14:27:57;1999.90;;;927.57;;
22378;SDS011;11357;49.990;7.370;2022-11-04T14:36:14;1949.97;;;951.50;;
22378;SDS011;11357;49.990;7.370;2022-11-04T14:38:40;1999.90;;;975.87;;
22378;SDS011;11357;49.990;7.370;2022-11-04T14:43:54;1832.47;;;970.90;;
22378;SDS011;11357;49.990;7.370;2022-11-04T14:46:24;1728.00;;;942.07;;
22378;SDS011;11357;49.990;7.370;2022-11-04T14:48:55;1742.77;;;936.50;;
22378;SDS011;11357;49.990;7.370;2022-11-04T14:51:25;1784.33;;;947.07;;
22378;SDS011;11357;49.990;7.370;2022-11-04T14:54:04;1813.77;;;950.37;;
22378;SDS011;11357;49.990;7.370;2022-11-04T14:56:51;1817.27;;;965.03;;
22378;SDS011;11357;49.990;7.370;2022-11-04T14:59:30;1780.60;;;976.93;;
22378;SDS011;11357;49.990;7.370;2022-11-04T15:01:56;1598.47;;;939.63;;
22378;SDS011;11357;49.990;7.370;2022-11-04T15:04:23;1722.40;;;963.60;;
22378;SDS011;11357;49.990;7.370;2022-11-04T15:09:21;1871.77;;;975.77;;
22378;SDS011;11357;49.990;7.370;2022-11-04T15:14:43;1818.20;;;969.47;;
22378;SDS011;11357;49.990;7.370;2022-11-04T15:17:09;1684.70;;;981.47;;
22378;SDS011;11357;49.990;7.370;2022-11-04T15:19:43;1702.57;;;957.43;;
22378;SDS011;11357;49.990;7.370;2022-11-04T15:22:16;1861.10;;;963.50;;
22378;SDS011;11357;49.990;7.370;2022-11-04T15:24:43;1836.83;;;959.80;;
22378;SDS011;11357;49.990;7.370;2022-11-04T15:27:09;1771.53;;;976.37;;
22378;SDS011;11357;49.990;7.370;2022-11-04T15:29:51;1786.97;;;956.30;;
22378;SDS011;11357;49.990;7.370;2022-11-04T15:32:24;1872.40;;;958.57;;
22378;SDS011;11357;49.990;7.370;2022-11-04T15:34:51;1875.20;;;990.17;;
22378;SDS011;11357;49.990;7.370;2022-11-04T15:37:18;1803.13;;;959.03;;
22378;SDS011;11357;49.990;7.370;2022-11-04T15:39:46;1845.63;;;966.47;;
22378;SDS011;11357;49.990;7.370;2022-11-04T15:42:25;1847.50;;;952.50;;
22378;SDS011;11357;49.990;7.370;2022-11-04T15:45:27;1850.67;;;958.40;;
22378;SDS011;11357;49.990;7.370;2022-11-04T15:50:51;1999.90;;;979.53;;
22378;SDS011;11357;49.990;7.370;2022-11-04T15:53:19;1999.90;;;958.50;;
22378;SDS011;11357;49.990;7.370;2022-11-04T15:55:46;1891.00;;;961.33;;
22378;SDS011;11357;49.990;7.370;2022-11-04T15:58:12;1833.40;;;943.83;;
22378;SDS011;11357;49.990;7.370;2022-11-04T16:00:39;1820.87;;;959.23;;
22378;SDS011;11357;49.990;7.370;2022-11-04T16:03:13;1805.13;;;962.10;;
22378;SDS011;11357;49.990;7.370;2022-11-04T16:05:58;1909.90;;;949.43;;
22378;SDS011;11357;49.990;7.370;2022-11-04T16:08:31;1838.37;;;946.10;;
22378;SDS011;11357;49.990;7.370;2022-11-04T16:11:17;1781.37;;;954.93;;
22378;SDS011;11357;49.990;7.370;2022-11-04T16:13:44;1858.43;;;952.57;;
22378;SDS011;11357;49.990;7.370;2022-11-04T16:16:25;1692.07;;;976.07;;
22378;SDS011;11357;49.990;7.370;2022-11-04T16:18:58;1691.07;;;961.13;;
22378;SDS011;11357;49.990;7.370;2022-11-04T16:24:03;1722.73;;;963.23;;
22378;SDS011;11357;49.990;7.370;2022-11-04T16:26:41;1706.10;;;980.00;;
22378;SDS011;11357;49.990;7.370;2022-11-04T16:29:19;1904.73;;;962.37;;
22378;SDS011;11357;49.990;7.370;2022-11-04T16:32:06;1741.73;;;931.90;;
22378;SDS011;11357;49.990;7.370;2022-11-04T16:34:32;1984.63;;;966.00;;
22378;SDS011;11357;49.990;7.370;2022-11-04T16:36:58;1697.83;;;948.17;;
22378;SDS011;11357;49.990;7.370;2022-11-04T16:39:24;1710.00;;;978.27;;
22378;SDS011;11357;49.990;7.370;2022-11-04T16:41:49;1721.13;;;946.50;;
22378;SDS011;11357;49.990;7.370;2022-11-04T16:44:18;1638.53;;;968.60;;
22378;SDS011;11357;49.990;7.370;2022-11-04T16:46:46;1559.03;;;945.00;;
22378;SDS011;11357;49.990;7.370;2022-11-04T16:49:15;1754.40;;;976.63;;
22378;SDS011;11357;49.990;7.370;2022-11-04T16:51:43;1710.70;;;966.27;;
22378;SDS011;11357;49.990;7.370;2022-11-04T16:54:09;1663.40;;;975.57;;
22378;SDS011;11357;49.990;7.370;2022-11-04T16:56:35;1819.03;;;999.77;;
22378;SDS011;11357;49.990;7.370;2022-11-04T16:59:02;1751.30;;;960.53;;
22378;SDS011;11357;49.990;7.370;2022-11-04T17:01:28;1823.03;;;967.73;;
22378;SDS011;11357;49.990;7.370;2022-11-04T17:03:53;1788.23;;;983.10;;
22378;SDS011;11357;49.990;7.370;2022-11-04T17:08:47;1573.90;;;975.47;;
22378;SDS011;11357;49.990;7.370;2022-11-04T17:11:12;1798.43;;;985.63;;
22378;SDS011;11357;49.990;7.370;2022-11-04T17:13:38;1861.67;;;991.67;;